createdAt,value
2018-08-03T00:01:08.856Z,20.03
2018-08-03T00:03:37.812Z,20.02
2018-08-03T00:06:06.784Z,20.01
2018-08-03T00:08:35.760Z,19.98
2018-08-03T00:11:04.788Z,19.99
2018-08-03T00:13:33.739Z,19.99
2018-08-03T00:16:02.707Z,19.98
2018-08-03T00:18:31.713Z,19.98
2018-08-03T00:21:15.403Z,19.96
2018-08-03T00:23:44.380Z,19.93
2018-08-03T00:26:13.359Z,19.89
2018-08-03T00:28:42.312Z,19.86
2018-08-03T00:31:11.345Z,19.79
2018-08-03T00:33:40.297Z,19.76
2018-08-03T00:36:09.320Z,19.75
2018-08-03T00:38:38.321Z,19.71
2018-08-03T00:41:07.412Z,19.68
2018-08-03T00:43:36.477Z,19.64
2018-08-03T00:46:05.488Z,19.63
2018-08-03T00:48:34.448Z,19.58
2018-08-03T00:51:03.399Z,19.55
2018-08-03T00:53:32.375Z,19.53
2018-08-03T00:56:01.437Z,19.52
2018-08-03T00:58:30.469Z,19.52
2018-08-03T01:00:59.424Z,19.51
2018-08-03T01:03:28.433Z,19.46
2018-08-03T01:05:57.392Z,19.43
2018-08-03T01:08:27.269Z,19.41
2018-08-03T01:10:56.217Z,19.41
2018-08-03T01:13:25.176Z,19.36
2018-08-03T01:15:54.143Z,19.29
2018-08-03T01:18:23.131Z,19.31
2018-08-03T01:20:52.092Z,19.27
2018-08-03T01:23:21.128Z,19.26
2018-08-03T01:25:50.158Z,19.25
2018-08-03T01:28:19.265Z,19.23
2018-08-03T01:30:48.270Z,19.22
2018-08-03T01:33:17.303Z,19.21
2018-08-03T01:35:46.271Z,19.21
2018-08-03T01:38:15.289Z,19.20
2018-08-03T01:40:44.373Z,19.16
2018-08-03T01:43:13.396Z,19.16
2018-08-03T01:45:42.363Z,19.14
2018-08-03T01:48:11.372Z,19.13
2018-08-03T01:50:40.385Z,19.14
2018-08-03T01:53:09.356Z,19.15
2018-08-03T01:55:38.352Z,19.17
2018-08-03T01:58:07.416Z,19.14
2018-08-03T02:00:36.363Z,19.16
2018-08-03T02:03:05.322Z,19.14
2018-08-03T02:05:34.320Z,19.14
2018-08-03T02:08:03.461Z,19.14
2018-08-03T02:10:32.512Z,19.13
2018-08-03T02:13:01.473Z,19.13
2018-08-03T02:15:30.554Z,19.12
2018-08-03T02:17:59.620Z,19.11
2018-08-03T02:20:28.694Z,19.10
2018-08-03T02:22:57.657Z,19.07
2018-08-03T02:25:26.639Z,19.05
2018-08-03T02:27:55.649Z,19.03
2018-08-03T02:30:24.733Z,19.00
2018-08-03T02:32:53.741Z,18.96
2018-08-03T02:35:22.776Z,18.95
2018-08-03T02:37:51.824Z,18.96
2018-08-03T02:40:20.910Z,18.92
2018-08-03T02:42:49.909Z,18.90
2018-08-03T02:45:18.868Z,18.91
2018-08-03T02:47:47.796Z,18.93
2018-08-03T02:50:16.808Z,18.94
2018-08-03T02:52:45.760Z,18.96
2018-08-03T02:55:14.821Z,18.98
2018-08-03T02:57:43.881Z,19.02
2018-08-03T03:00:12.879Z,19.04
2018-08-03T03:02:41.843Z,19.08
2018-08-03T03:05:10.918Z,19.11
2018-08-03T03:07:39.889Z,19.10
2018-08-03T03:10:08.851Z,19.10
2018-08-03T03:12:37.931Z,19.19
2018-08-03T03:15:07.280Z,19.14
2018-08-03T03:17:36.392Z,19.13
2018-08-03T03:20:05.411Z,19.15
2018-08-03T03:22:34.385Z,19.17
2018-08-03T03:25:03.386Z,19.23
2018-08-03T03:27:32.336Z,19.28
2018-08-03T03:30:01.364Z,19.26
2018-08-03T03:32:30.418Z,19.31
2018-08-03T03:34:59.464Z,19.33
2018-08-03T03:37:28.480Z,19.33
2018-08-03T03:39:57.518Z,19.34
2018-08-03T03:42:26.514Z,19.44
2018-08-03T03:44:55.578Z,19.56
2018-08-03T03:47:24.581Z,19.64
2018-08-03T03:49:53.773Z,19.74
2018-08-03T03:52:22.728Z,19.84
2018-08-03T03:54:51.691Z,19.92
2018-08-03T03:57:20.708Z,20.04
2018-08-03T03:59:49.808Z,20.14
2018-08-03T04:02:18.881Z,20.24
2018-08-03T04:04:47.899Z,20.35
2018-08-03T04:07:16.852Z,20.45
2018-08-03T04:09:45.844Z,20.50
2018-08-03T04:12:14.901Z,20.62
2018-08-03T04:14:43.913Z,20.78
2018-08-03T04:17:12.900Z,20.94
2018-08-03T04:19:41.917Z,21.01
2018-08-03T04:22:10.883Z,21.08
2018-08-03T04:24:39.904Z,21.13
2018-08-03T04:27:08.951Z,21.27
2018-08-03T04:29:38.050Z,21.72
2018-08-03T04:32:07.145Z,23.46
2018-08-03T04:34:36.130Z,25.42
2018-08-03T04:37:05.172Z,27.20
2018-08-03T04:39:34.204Z,28.60
2018-08-03T04:42:04.069Z,29.71
2018-08-03T04:44:33.249Z,30.69
2018-08-03T04:47:02.247Z,31.64
2018-08-03T04:49:31.228Z,32.05
2018-08-03T04:52:00.516Z,32.67
2018-08-03T04:54:29.545Z,32.59
2018-08-03T04:56:58.613Z,32.58
2018-08-03T04:59:27.842Z,32.36
2018-08-03T05:01:56.836Z,32.09
2018-08-03T05:04:25.854Z,31.90
2018-08-03T05:06:54.884Z,32.05
2018-08-03T05:09:23.946Z,32.51
2018-08-03T05:11:53.032Z,33.09
2018-08-03T05:14:22.095Z,34.21
2018-08-03T05:16:51.122Z,34.90
2018-08-03T05:19:20.087Z,35.34
2018-08-03T05:21:49.109Z,35.70
2018-08-03T05:24:18.198Z,35.91
2018-08-03T05:26:47.172Z,36.70
2018-08-03T05:29:16.183Z,37.04
2018-08-03T05:31:45.172Z,37.49
2018-08-03T05:34:14.196Z,38.27
2018-08-03T05:36:43.168Z,37.73
2018-08-03T05:39:12.484Z,37.60
2018-08-03T05:41:41.569Z,37.18
2018-08-03T05:44:10.596Z,37.31
2018-08-03T05:46:39.690Z,37.28
2018-08-03T05:49:08.727Z,37.11
2018-08-03T05:51:37.761Z,37.42
2018-08-03T05:54:06.874Z,37.17
2018-08-03T05:56:35.920Z,35.55
2018-08-03T05:59:04.875Z,34.97
2018-08-03T06:01:33.958Z,35.59
2018-08-03T06:04:03.061Z,35.88
2018-08-03T06:06:32.133Z,35.25
2018-08-03T06:09:01.157Z,35.87
2018-08-03T06:11:30.201Z,35.94
2018-08-03T06:13:59.180Z,35.33
2018-08-03T06:16:28.176Z,33.40
2018-08-03T06:18:57.252Z,32.29
2018-08-03T06:21:26.235Z,32.53
2018-08-03T06:23:55.324Z,32.65
2018-08-03T06:26:24.352Z,33.53
2018-08-03T06:28:53.856Z,33.84
2018-08-03T06:31:22.948Z,34.15
2018-08-03T06:33:51.947Z,34.68
2018-08-03T06:36:20.932Z,34.58
2018-08-03T06:38:49.991Z,35.17
2018-08-03T06:41:18.967Z,35.36
2018-08-03T06:43:47.940Z,35.34
2018-08-03T06:46:16.952Z,35.38
2018-08-03T06:48:46.011Z,35.58
2018-08-03T06:51:14.995Z,36.13
2018-08-03T06:53:44.000Z,36.15
2018-08-03T06:56:12.993Z,35.78
2018-08-03T06:58:41.991Z,35.36
2018-08-03T07:01:11.070Z,33.98
2018-08-03T07:03:40.127Z,32.91
2018-08-03T07:06:09.156Z,31.89
2018-08-03T07:08:38.129Z,31.63
2018-08-03T07:11:07.433Z,31.01
2018-08-03T07:13:36.420Z,30.87
2018-08-03T07:16:05.449Z,31.00
2018-08-03T07:18:34.480Z,30.95
2018-08-03T07:21:03.582Z,30.90
2018-08-03T07:23:32.635Z,31.00
2018-08-03T07:26:01.686Z,31.19
2018-08-03T07:28:30.813Z,31.44
2018-08-03T07:30:59.845Z,31.40
2018-08-03T07:33:28.847Z,30.99
2018-08-03T07:35:57.913Z,31.27
2018-08-03T07:38:26.891Z,31.95
2018-08-03T07:40:55.988Z,32.34
2018-08-03T07:43:25.092Z,32.90
2018-08-03T07:45:54.158Z,33.08
2018-08-03T07:48:23.157Z,33.10
2018-08-03T07:50:52.208Z,32.78
2018-08-03T07:53:21.203Z,33.05
2018-08-03T07:55:50.176Z,32.67
2018-08-03T07:58:19.164Z,32.15
2018-08-03T08:00:48.127Z,31.95
2018-08-03T08:03:17.158Z,32.05
2018-08-03T08:05:46.300Z,32.02
2018-08-03T08:08:15.361Z,31.98
2018-08-03T08:10:44.405Z,32.31
2018-08-03T08:13:13.447Z,32.34
2018-08-03T08:15:42.486Z,31.97
2018-08-03T08:18:11.552Z,31.83
2018-08-03T08:20:40.529Z,31.57
2018-08-03T08:23:09.585Z,31.48
2018-08-03T08:25:38.570Z,31.57
2018-08-03T08:28:07.745Z,31.57
2018-08-03T08:30:36.774Z,31.55
2018-08-03T08:33:05.882Z,31.39
2018-08-03T08:35:34.925Z,31.18
2018-08-03T08:38:03.964Z,31.25
2018-08-03T08:40:33.012Z,30.98
2018-08-03T08:43:02.048Z,30.96
2018-08-03T08:45:31.046Z,30.63
2018-08-03T08:48:00.157Z,30.56
2018-08-03T08:50:29.152Z,30.29
2018-08-03T08:52:58.574Z,30.36
2018-08-03T08:55:27.666Z,30.40
2018-08-03T08:57:56.717Z,30.36
2018-08-03T09:00:25.783Z,30.47
2018-08-03T09:02:54.832Z,30.43
2018-08-03T09:05:23.880Z,30.75
2018-08-03T09:07:52.981Z,30.79
2018-08-03T09:10:22.085Z,30.68
2018-08-03T09:12:51.111Z,30.48
2018-08-03T09:15:20.093Z,30.57
2018-08-03T09:17:49.565Z,30.64
2018-08-03T09:20:18.544Z,30.76
2018-08-03T09:22:47.581Z,30.97
2018-08-03T09:25:16.668Z,31.08
2018-08-03T09:27:45.712Z,31.20
2018-08-03T09:30:14.724Z,31.17
2018-08-03T09:32:43.702Z,31.35
2018-08-03T09:35:12.732Z,31.36
2018-08-03T09:37:41.778Z,31.41
2018-08-03T09:40:10.842Z,31.35
2018-08-03T09:42:39.868Z,31.45
2018-08-03T09:45:08.856Z,31.41
2018-08-03T09:47:37.880Z,31.62
2018-08-03T09:50:06.868Z,31.74
2018-08-03T09:52:35.897Z,31.66
2018-08-03T09:55:05.048Z,31.60
2018-08-03T09:57:34.020Z,31.62
2018-08-03T10:00:03.029Z,31.55
2018-08-03T10:02:32.117Z,31.58
2018-08-03T10:05:01.218Z,31.85
2018-08-03T10:07:30.317Z,31.96
2018-08-03T10:09:59.305Z,32.25
2018-08-03T10:12:28.322Z,32.39
2018-08-03T10:14:57.438Z,32.50
2018-08-03T10:17:26.474Z,32.08
2018-08-03T10:19:55.502Z,32.23
2018-08-03T10:22:24.575Z,32.57
2018-08-03T10:24:54.049Z,33.05
2018-08-03T10:27:23.008Z,33.30
2018-08-03T10:29:52.010Z,33.71
2018-08-03T10:32:21.093Z,34.55
2018-08-03T10:34:50.209Z,35.20
2018-08-03T10:37:19.177Z,35.44
2018-08-03T10:39:48.220Z,36.20
2018-08-03T10:42:17.257Z,36.36
2018-08-03T10:44:46.207Z,36.57
2018-08-03T10:47:15.333Z,36.84
2018-08-03T10:49:44.275Z,36.44
2018-08-03T10:52:13.245Z,35.97
2018-08-03T10:54:42.288Z,35.94
2018-08-03T10:57:11.281Z,35.63
2018-08-03T10:59:40.571Z,34.75
2018-08-03T11:02:09.745Z,34.39
2018-08-03T11:04:39.237Z,34.77
2018-08-03T11:07:08.281Z,35.71
2018-08-03T11:09:37.314Z,36.79
2018-08-03T11:12:06.488Z,36.38
2018-08-03T11:14:35.465Z,36.03
2018-08-03T11:17:04.444Z,35.93
2018-08-03T11:19:33.611Z,36.24
2018-08-03T11:22:02.596Z,36.20
2018-08-03T11:24:31.658Z,36.71
2018-08-03T11:27:00.668Z,37.64
2018-08-03T11:29:29.621Z,38.70
2018-08-03T11:31:58.620Z,38.06
2018-08-03T11:34:27.581Z,37.29
2018-08-03T11:36:56.578Z,37.60
2018-08-03T11:39:25.536Z,38.44
2018-08-03T11:41:54.626Z,38.68
2018-08-03T11:44:23.661Z,37.91
2018-08-03T11:46:52.708Z,36.85
2018-08-03T11:49:21.684Z,36.25
2018-08-03T11:51:50.703Z,35.46
2018-08-03T11:54:20.658Z,35.25
2018-08-03T11:56:49.672Z,34.99
2018-08-03T11:59:18.639Z,34.31
2018-08-03T12:01:47.716Z,33.95
2018-08-03T12:04:16.835Z,35.10
2018-08-03T12:06:45.908Z,36.61
2018-08-03T12:09:14.907Z,38.41
2018-08-03T12:11:43.880Z,39.80
2018-08-03T12:14:12.914Z,40.26
2018-08-03T12:16:41.938Z,40.10
2018-08-03T12:19:10.959Z,38.90
2018-08-03T12:21:39.988Z,37.94
2018-08-03T12:24:09.032Z,36.82
2018-08-03T12:26:38.119Z,35.82
2018-08-03T12:29:07.068Z,35.08
2018-08-03T12:31:36.134Z,34.70
2018-08-03T12:34:05.242Z,34.44
2018-08-03T12:36:34.297Z,34.17
2018-08-03T12:39:03.408Z,34.52
2018-08-03T12:41:32.429Z,35.65
2018-08-03T12:44:01.465Z,36.46
2018-08-03T12:46:30.493Z,37.00
2018-08-03T12:48:59.529Z,37.35
2018-08-03T12:51:28.514Z,38.21
2018-08-03T12:53:57.528Z,37.86
2018-08-03T12:56:26.592Z,37.72
2018-08-03T12:58:55.620Z,38.00
2018-08-03T13:01:24.673Z,38.35
2018-08-03T13:03:53.693Z,38.35
2018-08-03T13:06:22.765Z,38.92
2018-08-03T13:08:51.806Z,39.38
2018-08-03T13:11:20.809Z,39.66
2018-08-03T13:13:49.944Z,39.25
2018-08-03T13:16:19.028Z,38.51
2018-08-03T13:18:48.059Z,37.59
2018-08-03T13:21:27.968Z,36.43
2018-08-03T13:24:01.169Z,35.40
2018-08-03T13:26:30.168Z,34.85
2018-08-03T13:28:59.597Z,34.32
2018-08-03T13:31:29.735Z,34.49
2018-08-03T13:33:58.789Z,35.34
2018-08-03T13:36:29.152Z,36.18
2018-08-03T13:38:58.126Z,37.17
2018-08-03T13:41:27.157Z,38.20
2018-08-03T13:43:56.230Z,37.72
2018-08-03T13:46:25.208Z,38.24
2018-08-03T13:48:54.159Z,38.52
2018-08-03T13:51:23.177Z,37.85
2018-08-03T13:53:52.288Z,37.03
2018-08-03T13:56:21.312Z,36.45
2018-08-03T13:58:50.267Z,35.89
2018-08-03T14:01:30.369Z,36.24
2018-08-03T14:03:59.412Z,35.76
2018-08-03T14:06:28.412Z,34.94
2018-08-03T14:08:57.487Z,34.05
2018-08-03T14:11:26.563Z,33.56
2018-08-03T14:13:55.570Z,33.24
2018-08-03T14:16:24.611Z,33.02
2018-08-03T14:18:53.580Z,32.80
2018-08-03T14:21:22.833Z,32.75
2018-08-03T14:23:51.886Z,32.75
2018-08-03T14:26:20.905Z,32.62
2018-08-03T14:28:50.022Z,32.05
2018-08-03T14:31:19.076Z,31.70
2018-08-03T14:33:48.109Z,31.46
2018-08-03T14:36:17.177Z,31.23
2018-08-03T14:38:46.263Z,31.09
2018-08-03T14:41:15.343Z,30.81
2018-08-03T14:43:44.422Z,30.69
2018-08-03T14:46:13.403Z,30.67
2018-08-03T14:48:42.368Z,30.60
2018-08-03T14:51:11.401Z,30.54
2018-08-03T14:53:40.384Z,30.43
2018-08-03T14:56:09.464Z,30.32
2018-08-03T14:58:38.479Z,30.17
2018-08-03T15:01:07.577Z,30.20
2018-08-03T15:03:36.609Z,30.29
2018-08-03T15:06:05.737Z,30.33
2018-08-03T15:08:34.776Z,30.45
2018-08-03T15:11:03.802Z,30.40
2018-08-03T15:13:32.922Z,30.31
2018-08-03T15:16:01.894Z,30.16
2018-08-03T15:18:30.984Z,30.04
2018-08-03T15:20:59.981Z,29.85
2018-08-03T15:23:28.956Z,29.76
2018-08-03T15:25:58.127Z,29.75
2018-08-03T15:28:27.234Z,29.62
2018-08-03T15:30:56.220Z,29.50
2018-08-03T15:33:25.688Z,29.38
2018-08-03T15:35:54.910Z,29.34
2018-08-03T15:38:23.942Z,29.28
2018-08-03T15:40:53.001Z,29.22
2018-08-03T15:43:21.959Z,29.07
2018-08-03T15:45:50.932Z,29.26
2018-08-03T15:48:19.883Z,29.18
2018-08-03T15:50:48.977Z,29.11
2018-08-03T15:53:18.057Z,29.06
2018-08-03T15:55:47.067Z,29.03
2018-08-03T15:58:16.141Z,29.02
2018-08-03T16:00:45.153Z,28.96
2018-08-03T16:03:14.293Z,28.91
2018-08-03T16:05:43.365Z,28.85
2018-08-03T16:08:12.404Z,28.85
2018-08-03T16:10:41.420Z,28.76
2018-08-03T16:13:10.392Z,28.67
2018-08-03T16:15:39.365Z,28.66
2018-08-03T16:18:08.430Z,28.61
2018-08-03T16:20:37.507Z,28.56
2018-08-03T16:23:06.484Z,28.49
2018-08-03T16:25:35.618Z,28.45
2018-08-03T16:28:04.720Z,28.40
2018-08-03T16:30:33.665Z,28.34
2018-08-03T16:33:02.640Z,28.24
2018-08-03T16:35:31.668Z,28.19
2018-08-03T16:38:00.709Z,28.10
2018-08-03T16:40:29.760Z,28.05
2018-08-03T16:42:58.707Z,27.92
2018-08-03T16:45:27.882Z,27.83
2018-08-03T16:47:57.604Z,27.73
2018-08-03T16:50:26.572Z,27.66
2018-08-03T16:52:55.620Z,27.54
2018-08-03T16:55:24.769Z,27.38
2018-08-03T16:57:54.331Z,27.36
2018-08-03T17:00:23.592Z,27.27
2018-08-03T17:02:52.710Z,27.17
2018-08-03T17:05:21.724Z,27.07
2018-08-03T17:07:50.915Z,26.98
2018-08-03T17:10:19.955Z,26.90
2018-08-03T17:12:49.004Z,26.79
2018-08-03T17:15:17.971Z,26.66
2018-08-03T17:17:47.081Z,26.58
2018-08-03T17:20:16.115Z,26.47
2018-08-03T17:22:45.097Z,26.34
2018-08-03T17:25:14.216Z,26.27
2018-08-03T17:27:43.241Z,26.22
2018-08-03T17:30:12.215Z,26.13
2018-08-03T17:32:41.288Z,26.01
2018-08-03T17:35:10.299Z,25.95
2018-08-03T17:37:39.590Z,25.88
2018-08-03T17:40:08.607Z,25.82
2018-08-03T17:42:37.664Z,25.68
2018-08-03T17:45:06.769Z,25.65
2018-08-03T17:47:35.796Z,25.57
2018-08-03T17:50:05.399Z,25.48
2018-08-03T17:52:34.733Z,25.36
2018-08-03T17:55:03.836Z,25.26
2018-08-03T17:57:32.796Z,25.11
2018-08-03T18:00:01.814Z,24.97
2018-08-03T18:02:30.831Z,24.85
2018-08-03T18:04:59.879Z,24.79
2018-08-03T18:07:28.966Z,24.65
2018-08-03T18:09:58.009Z,24.58
2018-08-03T18:12:27.117Z,24.40
2018-08-03T18:14:56.138Z,24.30
2018-08-03T18:17:25.201Z,24.22
2018-08-03T18:19:54.166Z,24.12
2018-08-03T18:22:23.117Z,24.00
2018-08-03T18:24:52.221Z,23.91
2018-08-03T18:27:21.274Z,23.86
2018-08-03T18:29:50.299Z,23.76
2018-08-03T18:32:19.324Z,23.63
2018-08-03T18:34:48.283Z,23.62
2018-08-03T18:37:17.459Z,23.57
2018-08-03T18:39:46.479Z,23.50
2018-08-03T18:42:15.625Z,23.42
2018-08-03T18:44:44.677Z,23.38
2018-08-03T18:47:13.633Z,23.32
2018-08-03T18:49:42.673Z,23.24
2018-08-03T18:52:11.747Z,23.18
2018-08-03T18:54:40.837Z,23.13
2018-08-03T18:57:10.028Z,23.05
2018-08-03T18:59:39.060Z,22.94
2018-08-03T19:02:08.109Z,22.83
2018-08-03T19:04:37.267Z,22.74
2018-08-03T19:07:06.375Z,22.70
2018-08-03T19:09:35.459Z,22.61
2018-08-03T19:12:04.431Z,22.56
2018-08-03T19:14:33.433Z,22.52
2018-08-03T19:17:02.589Z,22.44
2018-08-03T19:19:31.786Z,22.46
2018-08-03T19:22:00.927Z,22.43
2018-08-03T19:24:29.835Z,22.38
2018-08-03T19:26:58.988Z,22.34
2018-08-03T19:29:27.952Z,22.27
2018-08-03T19:31:57.076Z,22.23
2018-08-03T19:34:26.135Z,22.20
2018-08-03T19:36:55.219Z,22.12
2018-08-03T19:39:24.284Z,22.08
2018-08-03T19:41:53.237Z,22.04
2018-08-03T19:44:22.332Z,22.01
2018-08-03T19:46:51.296Z,21.97
2018-08-03T19:49:20.316Z,21.95
2018-08-03T19:51:49.329Z,21.87
2018-08-03T19:54:18.425Z,21.89
2018-08-03T19:56:47.435Z,21.87
2018-08-03T19:59:16.485Z,21.80
2018-08-03T20:01:45.516Z,21.74
2018-08-03T20:04:14.452Z,21.74
2018-08-03T20:06:43.513Z,21.72
2018-08-03T20:09:13.304Z,21.66
2018-08-03T20:11:42.300Z,21.60
2018-08-03T20:14:11.268Z,21.56
2018-08-03T20:16:40.269Z,21.51
2018-08-03T20:19:09.432Z,21.47
2018-08-03T20:21:38.497Z,21.42
2018-08-03T20:24:07.463Z,21.36
2018-08-03T20:26:36.489Z,21.32
2018-08-03T20:29:05.631Z,21.29
2018-08-03T20:31:34.616Z,21.23
2018-08-03T20:34:03.583Z,21.19
2018-08-03T20:36:32.654Z,21.12
2018-08-03T20:39:01.719Z,21.08
2018-08-03T20:41:30.809Z,21.03
2018-08-03T20:43:59.781Z,20.99
2018-08-03T20:46:28.808Z,20.97
2018-08-03T20:48:57.825Z,20.94
2018-08-03T20:51:26.840Z,20.92
2018-08-03T20:53:55.921Z,20.87
2018-08-03T20:56:24.871Z,20.87
2018-08-03T20:58:53.900Z,20.85
2018-08-03T21:01:23.001Z,20.77
2018-08-03T21:03:52.321Z,20.73
2018-08-03T21:06:21.335Z,20.68
2018-08-03T21:08:50.283Z,20.65
2018-08-03T21:11:19.383Z,20.68
2018-08-03T21:13:48.311Z,20.67
2018-08-03T21:16:17.248Z,20.67
2018-08-03T21:18:46.213Z,20.66
2018-08-03T21:21:15.159Z,20.64
2018-08-03T21:23:44.155Z,20.57
2018-08-03T21:26:13.168Z,20.58
2018-08-03T21:28:42.180Z,20.57
2018-08-03T21:31:11.237Z,20.57
2018-08-03T21:33:40.252Z,20.56
2018-08-03T21:36:09.277Z,20.54
2018-08-03T21:38:38.277Z,20.54
2018-08-03T21:41:07.296Z,20.56
2018-08-03T21:43:36.344Z,20.58
2018-08-03T21:46:06.413Z,20.59
2018-08-03T21:48:35.467Z,20.56
2018-08-03T21:51:04.414Z,20.55
2018-08-03T21:53:33.367Z,20.54
2018-08-03T21:56:02.417Z,20.53
2018-08-03T21:58:31.566Z,20.56
2018-08-03T22:01:00.531Z,20.59
2018-08-03T22:03:29.640Z,20.58
2018-08-03T22:05:58.745Z,20.58
2018-08-03T22:08:27.841Z,20.58
2018-08-03T22:10:57.021Z,20.55
2018-08-03T22:13:26.020Z,20.54
2018-08-03T22:15:55.037Z,20.54
2018-08-03T22:18:24.066Z,20.53
2018-08-03T22:20:53.080Z,20.51
2018-08-03T22:23:22.032Z,20.52
2018-08-03T22:25:50.990Z,20.51
2018-08-03T22:28:20.247Z,20.46
2018-08-03T22:30:49.296Z,20.40
2018-08-03T22:33:18.316Z,20.35
2018-08-03T22:35:47.283Z,20.34
2018-08-03T22:38:16.404Z,20.30
2018-08-03T22:40:45.450Z,20.28
2018-08-03T22:43:14.537Z,20.27
2018-08-03T22:45:43.516Z,20.27
2018-08-03T22:48:12.509Z,20.22
2018-08-03T22:50:41.538Z,20.18
2018-08-03T22:53:10.601Z,20.17
2018-08-03T22:55:39.837Z,20.18
2018-08-03T22:58:08.905Z,20.18
2018-08-03T23:00:37.921Z,20.15
2018-08-03T23:03:07.230Z,20.13
2018-08-03T23:05:36.178Z,20.08
2018-08-03T23:08:05.204Z,20.06
2018-08-03T23:10:34.179Z,20.06
2018-08-03T23:13:03.245Z,20.03
2018-08-03T23:15:32.253Z,20.01
2018-08-03T23:18:01.200Z,20.00
2018-08-03T23:20:30.282Z,19.99
2018-08-03T23:22:59.331Z,19.96
2018-08-03T23:25:28.315Z,19.91
2018-08-03T23:27:57.400Z,19.90
2018-08-03T23:30:26.425Z,19.86
2018-08-03T23:32:55.488Z,19.84
2018-08-03T23:35:24.451Z,19.81
2018-08-03T23:37:53.524Z,19.82
2018-08-03T23:40:22.472Z,19.85
2018-08-03T23:42:51.475Z,19.89
2018-08-03T23:45:20.489Z,19.95
2018-08-03T23:47:49.651Z,19.95
2018-08-03T23:50:19.382Z,19.94
2018-08-03T23:52:49.462Z,19.91
2018-08-03T23:55:18.549Z,19.89
2018-08-03T23:57:47.556Z,19.82
